JBU326 MKJS-KFLL
Flight info
| Callsign | JBU326 |
|---|---|
| Flight time | 1h 32m |
| Altitude | 36000 |
| Route | N0444F370 TILUP1 TILUP ULDAR UR625 NEFTU UL471 BORDO OLAHS3 |
| Aircraft | A320/M-SDE3FGHIRWY/LB1 |
Departure
| Time | 2026-05-05 03:09 |
|---|---|
| Airport | Sangster International Airport (MKJS) |
Arrival
| Time | 2026-05-05 04:42 |
|---|---|
| Airport | Fort Lauderdale Hollywood International Airport (KFLL) |
| Time | Latitude | Longitude | Altitude | Speed | Heading |
|---|---|---|---|---|---|
| 2026-05-05 02:49 | 18.49994 | -77.91384 | 21 ft | 0 kts | 177° |
| 2026-05-05 02:54 | 18.49995 | -77.91385 | 21 ft | 1 kts | 177° |
| 2026-05-05 02:54 | 18.50007 | -77.91385 | 21 ft | 2 kts | 177° |
| 2026-05-05 02:54 | 18.50026 | -77.91386 | 21 ft | 3 kts | 177° |
| 2026-05-05 02:55 | 18.50046 | -77.91387 | 21 ft | 3 kts | 177° |
| 2026-05-05 02:55 | 18.50067 | -77.91388 | 21 ft | 3 kts | 177° |
| 2026-05-05 02:55 | 18.50087 | -77.91389 | 21 ft | 3 kts | 177° |
| 2026-05-05 02:55 | 18.50108 | -77.91388 | 21 ft | 3 kts | 193° |
| 2026-05-05 02:56 | 18.50127 | -77.91379 | 21 ft | 3 kts | 212° |
| 2026-05-05 02:56 | 18.50142 | -77.91365 | 21 ft | 3 kts | 231° |
| 2026-05-05 02:56 | 18.50153 | -77.91347 | 21 ft | 3 kts | 247° |
| 2026-05-05 02:56 | 18.50158 | -77.91326 | 21 ft | 3 kts | 261° |
| 2026-05-05 02:57 | 18.50160 | -77.91311 | 21 ft | 0 kts | 265° |
| 2026-05-05 02:58 | 18.50159 | -77.91312 | 21 ft | 0 kts | 265° |
| 2026-05-05 02:58 | 18.50162 | -77.91329 | 21 ft | 4 kts | 282° |
| 2026-05-05 02:58 | 18.50167 | -77.91374 | 21 ft | 7 kts | 260° |
| 2026-05-05 02:59 | 18.50143 | -77.91434 | 21 ft | 11 kts | 246° |
| 2026-05-05 02:59 | 18.50111 | -77.91515 | 21 ft | 12 kts | 243° |
| 2026-05-05 02:59 | 18.50073 | -77.91597 | 21 ft | 13 kts | 244° |
| 2026-05-05 02:59 | 18.50036 | -77.91684 | 21 ft | 13 kts | 246° |
| 2026-05-05 03:00 | 18.49996 | -77.91775 | 21 ft | 14 kts | 244° |
| 2026-05-05 03:00 | 18.49953 | -77.91872 | 21 ft | 15 kts | 245° |
| 2026-05-05 03:00 | 18.49908 | -77.91978 | 21 ft | 17 kts | 246° |
| 2026-05-05 03:00 | 18.49867 | -77.92076 | 21 ft | 7 kts | 244° |
| 2026-05-05 03:01 | 18.49843 | -77.92129 | 21 ft | 9 kts | 246° |
| 2026-05-05 03:01 | 18.49813 | -77.92197 | 21 ft | 11 kts | 245° |
| 2026-05-05 03:01 | 18.49775 | -77.92279 | 21 ft | 14 kts | 242° |
| 2026-05-05 03:01 | 18.49757 | -77.92327 | 21 ft | 6 kts | 257° |
| 2026-05-05 03:02 | 18.49759 | -77.92379 | 21 ft | 8 kts | 286° |
| 2026-05-05 03:02 | 18.49799 | -77.92424 | 21 ft | 4 kts | 333° |
| 2026-05-05 03:02 | 18.49802 | -77.92425 | 21 ft | 0 kts | 334° |
| 2026-05-05 03:07 | 18.49803 | -77.92426 | 21 ft | 1 kts | 334° |
| 2026-05-05 03:07 | 18.49814 | -77.92431 | 21 ft | 3 kts | 334° |
| 2026-05-05 03:08 | 18.49839 | -77.92444 | 21 ft | 5 kts | 334° |
| 2026-05-05 03:08 | 18.49877 | -77.92458 | 21 ft | 5 kts | 34° |
| 2026-05-05 03:08 | 18.49885 | -77.92446 | 21 ft | 0 kts | 61° |
| 2026-05-05 03:08 | 18.49885 | -77.92445 | 21 ft | 0 kts | 61° |
| 2026-05-05 03:09 | 18.49908 | -77.92396 | 21 ft | 28 kts | 65° |
| 2026-05-05 03:09 | 18.50117 | -77.91913 | 22 ft | 115 kts | 65° |
| 2026-05-05 03:09 | 18.50555 | -77.90906 | 96 ft | 175 kts | 67° |
| 2026-05-05 03:09 | 18.51046 | -77.89753 | 976 ft | 173 kts | 66° |
| 2026-05-05 03:10 | 18.51584 | -77.88584 | 1534 ft | 184 kts | 54° |
| 2026-05-05 03:10 | 18.52669 | -77.87792 | 1900 ft | 203 kts | 12° |
| 2026-05-05 03:10 | 18.54123 | -77.87875 | 2275 ft | 222 kts | 347° |
| 2026-05-05 03:10 | 18.55660 | -77.88344 | 2805 ft | 237 kts | 345° |
| 2026-05-05 03:11 | 18.57303 | -77.88812 | 3400 ft | 251 kts | 348° |
| 2026-05-05 03:11 | 18.59074 | -77.89022 | 3994 ft | 263 kts | 6° |
| 2026-05-05 03:11 | 18.60866 | -77.88572 | 4804 ft | 266 kts | 19° |
| 2026-05-05 03:11 | 18.62616 | -77.87903 | 5673 ft | 269 kts | 20° |
| 2026-05-05 03:12 | 18.64392 | -77.87238 | 6471 ft | 273 kts | 18° |
| 2026-05-05 03:12 | 18.66219 | -77.86618 | 7248 ft | 277 kts | 17° |
| 2026-05-05 03:12 | 18.68056 | -77.86026 | 7971 ft | 282 kts | 16° |
| 2026-05-05 03:12 | 18.69949 | -77.85408 | 8682 ft | 287 kts | 17° |
| 2026-05-05 03:13 | 18.71870 | -77.84760 | 9380 ft | 292 kts | 17° |
| 2026-05-05 03:13 | 18.73820 | -77.84089 | 10081 ft | 295 kts | 18° |
| 2026-05-05 03:13 | 18.75804 | -77.83411 | 10625 ft | 305 kts | 17° |
| 2026-05-05 03:13 | 18.77872 | -77.82715 | 11001 ft | 319 kts | 17° |
| 2026-05-05 03:14 | 18.79299 | -77.82239 | 11228 ft | 329 kts | 17° |
| 2026-05-05 03:14 | 18.82260 | -77.81250 | 11688 ft | 345 kts | 17° |
| 2026-05-05 03:14 | 18.84597 | -77.80464 | 12259 ft | 349 kts | 17° |
| 2026-05-05 03:14 | 18.86137 | -77.79946 | 12643 ft | 352 kts | 17° |
| 2026-05-05 03:15 | 18.89249 | -77.78896 | 13392 ft | 356 kts | 17° |
| 2026-05-05 03:15 | 18.91624 | -77.78093 | 13941 ft | 360 kts | 16° |
| 2026-05-05 03:15 | 18.94024 | -77.77282 | 14478 ft | 363 kts | 16° |
| 2026-05-05 03:15 | 18.96451 | -77.76461 | 15005 ft | 367 kts | 16° |
| 2026-05-05 03:16 | 18.98063 | -77.75914 | 15353 ft | 369 kts | 16° |
| 2026-05-05 03:16 | 19.00514 | -77.75081 | 15882 ft | 371 kts | 16° |
| 2026-05-05 03:16 | 19.02984 | -77.74245 | 16406 ft | 374 kts | 16° |
| 2026-05-05 03:16 | 19.06284 | -77.73130 | 17088 ft | 377 kts | 16° |
| 2026-05-05 03:17 | 19.07980 | -77.72558 | 17430 ft | 379 kts | 16° |
| 2026-05-05 03:17 | 19.10498 | -77.71707 | 17927 ft | 381 kts | 16° |
| 2026-05-05 03:17 | 19.13030 | -77.70850 | 18416 ft | 384 kts | 16° |
| 2026-05-05 03:17 | 19.15589 | -77.69982 | 18898 ft | 386 kts | 16° |
| 2026-05-05 03:18 | 19.18153 | -77.69102 | 19370 ft | 388 kts | 16° |
| 2026-05-05 03:18 | 19.20697 | -77.68223 | 19831 ft | 391 kts | 16° |
| 2026-05-05 03:18 | 19.23301 | -77.67320 | 20302 ft | 393 kts | 15° |
| 2026-05-05 03:18 | 19.25912 | -77.66420 | 20787 ft | 396 kts | 15° |
| 2026-05-05 03:19 | 19.31191 | -77.64608 | 21711 ft | 401 kts | 15° |
| 2026-05-05 03:19 | 19.33830 | -77.63702 | 22155 ft | 404 kts | 15° |
| 2026-05-05 03:19 | 19.36514 | -77.62779 | 22588 ft | 407 kts | 14° |
| 2026-05-05 03:20 | 19.39211 | -77.61849 | 23011 ft | 409 kts | 14° |
| 2026-05-05 03:20 | 19.41928 | -77.60912 | 23418 ft | 412 kts | 14° |
| 2026-05-05 03:20 | 19.44661 | -77.59969 | 23815 ft | 415 kts | 14° |
| 2026-05-05 03:20 | 19.47418 | -77.59017 | 24204 ft | 417 kts | 14° |
| 2026-05-05 03:21 | 19.50185 | -77.58062 | 24587 ft | 420 kts | 14° |
| 2026-05-05 03:21 | 19.52969 | -77.57110 | 24954 ft | 422 kts | 13° |
| 2026-05-05 03:21 | 19.55834 | -77.56464 | 25310 ft | 420 kts | 4° |
| 2026-05-05 03:21 | 19.58733 | -77.56077 | 25668 ft | 421 kts | 2° |
| 2026-05-05 03:22 | 19.61655 | -77.55768 | 26022 ft | 423 kts | 1° |
| 2026-05-05 03:22 | 19.64598 | -77.55470 | 26342 ft | 425 kts | 0° |
| 2026-05-05 03:22 | 19.67568 | -77.55143 | 26472 ft | 432 kts | 0° |
| 2026-05-05 03:22 | 19.70583 | -77.54791 | 26565 ft | 439 kts | 1° |
| 2026-05-05 03:23 | 19.73607 | -77.54422 | 26682 ft | 445 kts | 1° |
| 2026-05-05 03:23 | 19.76694 | -77.54042 | 26900 ft | 447 kts | 1° |
| 2026-05-05 03:23 | 19.79797 | -77.53665 | 27144 ft | 449 kts | 0° |
| 2026-05-05 03:23 | 19.82918 | -77.53296 | 27385 ft | 451 kts | 0° |
| 2026-05-05 03:24 | 19.86040 | -77.52930 | 27633 ft | 453 kts | 0° |
| 2026-05-05 03:24 | 19.89184 | -77.52560 | 27879 ft | 455 kts | 0° |
| 2026-05-05 03:24 | 19.92337 | -77.52184 | 28123 ft | 456 kts | 0° |
| 2026-05-05 03:24 | 19.95467 | -77.51810 | 28357 ft | 458 kts | 0° |
| 2026-05-05 03:25 | 19.98652 | -77.51430 | 28593 ft | 460 kts | 0° |
| 2026-05-05 03:25 | 20.01841 | -77.51050 | 28823 ft | 461 kts | 360° |
| 2026-05-05 03:25 | 20.05041 | -77.50669 | 29050 ft | 463 kts | 360° |
| 2026-05-05 03:25 | 20.08217 | -77.50291 | 29272 ft | 465 kts | 360° |
| 2026-05-05 03:26 | 20.11432 | -77.49907 | 29492 ft | 466 kts | 360° |
| 2026-05-05 03:26 | 20.14665 | -77.49519 | 29710 ft | 468 kts | 360° |
| 2026-05-05 03:26 | 20.17907 | -77.49131 | 29923 ft | 469 kts | 359° |
| 2026-05-05 03:26 | 20.21162 | -77.48745 | 30139 ft | 471 kts | 359° |
| 2026-05-05 03:27 | 20.24426 | -77.48358 | 30354 ft | 472 kts | 359° |
| 2026-05-05 03:27 | 20.27696 | -77.47969 | 30562 ft | 474 kts | 359° |
| 2026-05-05 03:27 | 20.30972 | -77.47575 | 30826 ft | 474 kts | 359° |
| 2026-05-05 03:27 | 20.34250 | -77.47180 | 31110 ft | 473 kts | 359° |
| 2026-05-05 03:28 | 20.37530 | -77.46787 | 31390 ft | 473 kts | 359° |
| 2026-05-05 03:28 | 20.40804 | -77.46396 | 31666 ft | 472 kts | 359° |
| 2026-05-05 03:28 | 20.44066 | -77.46006 | 31940 ft | 472 kts | 359° |
| 2026-05-05 03:28 | 20.47329 | -77.45616 | 32229 ft | 471 kts | 359° |
| 2026-05-05 03:29 | 20.50539 | -77.45231 | 32514 ft | 469 kts | 359° |
| 2026-05-05 03:29 | 20.53782 | -77.44928 | 32790 ft | 463 kts | 353° |
| 2026-05-05 03:29 | 20.56957 | -77.45187 | 33041 ft | 450 kts | 342° |
| 2026-05-05 03:29 | 20.59980 | -77.45950 | 33300 ft | 444 kts | 338° |
| 2026-05-05 03:30 | 20.62947 | -77.46856 | 33557 ft | 442 kts | 336° |
| 2026-05-05 03:30 | 20.65895 | -77.47796 | 33817 ft | 441 kts | 336° |
| 2026-05-05 03:30 | 20.68850 | -77.48704 | 34096 ft | 441 kts | 337° |
| 2026-05-05 03:30 | 20.71787 | -77.49551 | 34339 ft | 441 kts | 338° |
| 2026-05-05 03:31 | 20.74760 | -77.50371 | 34584 ft | 441 kts | 338° |
| 2026-05-05 03:31 | 20.77728 | -77.51189 | 34820 ft | 440 kts | 338° |
| 2026-05-05 03:31 | 20.80686 | -77.52026 | 35049 ft | 439 kts | 338° |
| 2026-05-05 03:31 | 20.83634 | -77.52879 | 35273 ft | 438 kts | 338° |
| 2026-05-05 03:32 | 20.86584 | -77.53740 | 35489 ft | 438 kts | 338° |
| 2026-05-05 03:32 | 20.89519 | -77.54591 | 35702 ft | 437 kts | 338° |
| 2026-05-05 03:32 | 20.92462 | -77.55437 | 35905 ft | 437 kts | 338° |
| 2026-05-05 03:32 | 20.95400 | -77.56278 | 36078 ft | 437 kts | 338° |
| 2026-05-05 03:33 | 21.01268 | -77.57962 | 36070 ft | 437 kts | 338° |
| 2026-05-05 03:33 | 21.07143 | -77.59654 | 36066 ft | 437 kts | 338° |
| 2026-05-05 03:34 | 21.13011 | -77.61346 | 36064 ft | 437 kts | 338° |
| 2026-05-05 03:34 | 21.18853 | -77.63027 | 36064 ft | 437 kts | 338° |
| 2026-05-05 03:35 | 21.24717 | -77.64719 | 36071 ft | 437 kts | 338° |
| 2026-05-05 03:35 | 21.30585 | -77.66415 | 36072 ft | 437 kts | 338° |
| 2026-05-05 03:36 | 21.36448 | -77.68110 | 36076 ft | 437 kts | 338° |
| 2026-05-05 03:36 | 21.42327 | -77.69810 | 36078 ft | 437 kts | 338° |
| 2026-05-05 03:37 | 21.48198 | -77.71509 | 36086 ft | 437 kts | 338° |
| 2026-05-05 03:37 | 21.54076 | -77.73213 | 36094 ft | 437 kts | 338° |
| 2026-05-05 03:38 | 21.59910 | -77.74902 | 36097 ft | 437 kts | 338° |
| 2026-05-05 03:38 | 21.65783 | -77.76606 | 36098 ft | 437 kts | 338° |
| 2026-05-05 03:39 | 21.71659 | -77.78314 | 36099 ft | 437 kts | 338° |
| 2026-05-05 03:39 | 21.77523 | -77.80019 | 36095 ft | 437 kts | 338° |
| 2026-05-05 03:40 | 21.83392 | -77.81727 | 36089 ft | 436 kts | 338° |
| 2026-05-05 03:40 | 21.89255 | -77.83432 | 36083 ft | 436 kts | 338° |
| 2026-05-05 03:41 | 21.95123 | -77.85132 | 36082 ft | 437 kts | 338° |
| 2026-05-05 03:41 | 22.00959 | -77.86807 | 36079 ft | 436 kts | 338° |
| 2026-05-05 03:42 | 22.06831 | -77.88503 | 36081 ft | 436 kts | 338° |
| 2026-05-05 03:42 | 22.12701 | -77.90201 | 36088 ft | 436 kts | 338° |
| 2026-05-05 03:43 | 22.18573 | -77.91900 | 36096 ft | 436 kts | 338° |
| 2026-05-05 03:43 | 22.24446 | -77.93598 | 36098 ft | 436 kts | 338° |
| 2026-05-05 03:44 | 22.30322 | -77.95299 | 36098 ft | 436 kts | 338° |
| 2026-05-05 03:44 | 22.36184 | -77.97002 | 36098 ft | 436 kts | 338° |
| 2026-05-05 03:45 | 22.42058 | -77.98707 | 36098 ft | 436 kts | 338° |
| 2026-05-05 03:45 | 22.47889 | -78.00401 | 36098 ft | 436 kts | 338° |
| 2026-05-05 03:46 | 22.53746 | -78.02108 | 36084 ft | 436 kts | 338° |
| 2026-05-05 03:46 | 22.59597 | -78.03815 | 36046 ft | 436 kts | 338° |
| 2026-05-05 03:47 | 22.65469 | -78.05525 | 36006 ft | 437 kts | 338° |
| 2026-05-05 03:47 | 22.71342 | -78.07241 | 36012 ft | 437 kts | 338° |
| 2026-05-05 03:48 | 22.77226 | -78.08959 | 36032 ft | 437 kts | 338° |
| 2026-05-05 03:48 | 22.83103 | -78.10684 | 36057 ft | 437 kts | 338° |
| 2026-05-05 03:49 | 22.88962 | -78.12447 | 36080 ft | 437 kts | 337° |
| 2026-05-05 03:49 | 22.94791 | -78.14194 | 36098 ft | 437 kts | 338° |
| 2026-05-05 03:50 | 23.00661 | -78.15943 | 36098 ft | 437 kts | 338° |
| 2026-05-05 03:50 | 23.06538 | -78.17701 | 36099 ft | 437 kts | 338° |
| 2026-05-05 03:51 | 23.12398 | -78.19457 | 36097 ft | 437 kts | 338° |
| 2026-05-05 03:51 | 23.18256 | -78.21213 | 36085 ft | 437 kts | 338° |
| 2026-05-05 03:52 | 23.24116 | -78.22970 | 36064 ft | 437 kts | 338° |
| 2026-05-05 03:52 | 23.29977 | -78.24732 | 36052 ft | 437 kts | 338° |
| 2026-05-05 03:53 | 23.35804 | -78.26481 | 36047 ft | 437 kts | 337° |
| 2026-05-05 03:53 | 23.41683 | -78.28249 | 36079 ft | 436 kts | 336° |
| 2026-05-05 03:54 | 23.47513 | -78.30009 | 36099 ft | 434 kts | 336° |
| 2026-05-05 03:54 | 23.53341 | -78.31761 | 36090 ft | 434 kts | 336° |
| 2026-05-05 03:55 | 23.59113 | -78.33502 | 36101 ft | 431 kts | 336° |
| 2026-05-05 03:55 | 23.64886 | -78.35247 | 36093 ft | 429 kts | 336° |
| 2026-05-05 03:56 | 23.70639 | -78.36985 | 36051 ft | 427 kts | 336° |
| 2026-05-05 03:56 | 23.76373 | -78.38720 | 36008 ft | 427 kts | 336° |
| 2026-05-05 03:57 | 23.82101 | -78.40451 | 36012 ft | 427 kts | 335° |
| 2026-05-05 03:57 | 23.87828 | -78.42195 | 36007 ft | 428 kts | 336° |
| 2026-05-05 03:58 | 23.93549 | -78.43927 | 36011 ft | 430 kts | 336° |
| 2026-05-05 03:58 | 23.99367 | -78.45618 | 36005 ft | 437 kts | 341° |
| 2026-05-05 03:59 | 24.05565 | -78.45998 | 36060 ft | 451 kts | 353° |
| 2026-05-05 03:59 | 24.11851 | -78.45808 | 36099 ft | 452 kts | 353° |
| 2026-05-05 04:00 | 24.17054 | -78.45732 | 36099 ft | 449 kts | 352° |
| 2026-05-05 04:00 | 24.24287 | -78.45756 | 36088 ft | 446 kts | 352° |
| 2026-05-05 04:01 | 24.29482 | -78.45724 | 36054 ft | 445 kts | 352° |
| 2026-05-05 04:01 | 24.35676 | -78.45662 | 36012 ft | 444 kts | 352° |
| 2026-05-05 04:02 | 24.41862 | -78.45631 | 36009 ft | 444 kts | 352° |
| 2026-05-05 04:02 | 24.48044 | -78.45617 | 36010 ft | 445 kts | 352° |
| 2026-05-05 04:03 | 24.54242 | -78.45609 | 35820 ft | 442 kts | 352° |
| 2026-05-05 04:03 | 24.57269 | -78.45598 | 35200 ft | 438 kts | 351° |
| 2026-05-05 04:03 | 24.60326 | -78.45589 | 34233 ft | 442 kts | 350° |
| 2026-05-05 04:04 | 24.63423 | -78.45590 | 33077 ft | 448 kts | 350° |
| 2026-05-05 04:04 | 24.66565 | -78.45592 | 31878 ft | 455 kts | 349° |
| 2026-05-05 04:04 | 24.69762 | -78.45588 | 30674 ft | 461 kts | 350° |
| 2026-05-05 04:04 | 24.72969 | -78.45579 | 29686 ft | 461 kts | 351° |
| 2026-05-05 04:05 | 24.76147 | -78.45559 | 29002 ft | 452 kts | 351° |
| 2026-05-05 04:05 | 24.79264 | -78.45538 | 28249 ft | 445 kts | 351° |
| 2026-05-05 04:05 | 24.82352 | -78.45529 | 27348 ft | 442 kts | 351° |
| 2026-05-05 04:05 | 24.85427 | -78.45530 | 26545 ft | 439 kts | 351° |
| 2026-05-05 04:06 | 24.88469 | -78.45531 | 25936 ft | 432 kts | 352° |
| 2026-05-05 04:06 | 24.91432 | -78.45536 | 25618 ft | 421 kts | 351° |
| 2026-05-05 04:06 | 24.94326 | -78.45549 | 25381 ft | 411 kts | 351° |
| 2026-05-05 04:06 | 24.97163 | -78.45568 | 25130 ft | 404 kts | 351° |
| 2026-05-05 04:07 | 24.99947 | -78.45591 | 24887 ft | 405 kts | 351° |
| 2026-05-05 04:07 | 25.02758 | -78.45612 | 24642 ft | 404 kts | 352° |
| 2026-05-05 04:07 | 25.05564 | -78.45629 | 24383 ft | 402 kts | 352° |
| 2026-05-05 04:07 | 25.08362 | -78.45638 | 24135 ft | 401 kts | 352° |
| 2026-05-05 04:08 | 25.11145 | -78.45646 | 24056 ft | 400 kts | 352° |
| 2026-05-05 04:08 | 25.13934 | -78.45659 | 24060 ft | 400 kts | 352° |
| 2026-05-05 04:08 | 25.16722 | -78.45676 | 24060 ft | 400 kts | 352° |
| 2026-05-05 04:08 | 25.19522 | -78.45692 | 24058 ft | 400 kts | 352° |
| 2026-05-05 04:09 | 25.22307 | -78.45706 | 24058 ft | 400 kts | 352° |
| 2026-05-05 04:09 | 25.25095 | -78.45719 | 24059 ft | 400 kts | 352° |
| 2026-05-05 04:09 | 25.27887 | -78.45732 | 24059 ft | 400 kts | 352° |
| 2026-05-05 04:09 | 25.30638 | -78.45744 | 24059 ft | 400 kts | 352° |
| 2026-05-05 04:10 | 25.33428 | -78.45757 | 24059 ft | 400 kts | 352° |
| 2026-05-05 04:10 | 25.36194 | -78.45864 | 24049 ft | 394 kts | 345° |
| 2026-05-05 04:10 | 25.38804 | -78.46595 | 24047 ft | 379 kts | 329° |
| 2026-05-05 04:10 | 25.41009 | -78.48073 | 24039 ft | 364 kts | 313° |
| 2026-05-05 04:11 | 25.42654 | -78.50103 | 23789 ft | 349 kts | 297° |
| 2026-05-05 04:11 | 25.43732 | -78.52464 | 23225 ft | 342 kts | 288° |
| 2026-05-05 04:11 | 25.44594 | -78.54931 | 22418 ft | 347 kts | 287° |
| 2026-05-05 04:11 | 25.45450 | -78.57440 | 21779 ft | 348 kts | 287° |
| 2026-05-05 04:12 | 25.46340 | -78.59901 | 21463 ft | 340 kts | 288° |
| 2026-05-05 04:12 | 25.47256 | -78.62284 | 21140 ft | 333 kts | 289° |
| 2026-05-05 04:12 | 25.48175 | -78.64621 | 20690 ft | 331 kts | 289° |
| 2026-05-05 04:12 | 25.49087 | -78.66958 | 20215 ft | 330 kts | 289° |
| 2026-05-05 04:13 | 25.49986 | -78.69296 | 19767 ft | 329 kts | 289° |
| 2026-05-05 04:13 | 25.50868 | -78.71606 | 19416 ft | 324 kts | 289° |
| 2026-05-05 04:13 | 25.51730 | -78.73866 | 19154 ft | 322 kts | 289° |
| 2026-05-05 04:13 | 25.52600 | -78.76150 | 19040 ft | 321 kts | 289° |
| 2026-05-05 04:14 | 25.53467 | -78.78425 | 18944 ft | 320 kts | 289° |
| 2026-05-05 04:14 | 25.54331 | -78.80688 | 18505 ft | 318 kts | 289° |
| 2026-05-05 04:14 | 25.55194 | -78.82949 | 17935 ft | 318 kts | 289° |
| 2026-05-05 04:14 | 25.56055 | -78.85203 | 17400 ft | 317 kts | 289° |
| 2026-05-05 04:15 | 25.56911 | -78.87450 | 16886 ft | 316 kts | 289° |
| 2026-05-05 04:15 | 25.57755 | -78.89663 | 16584 ft | 308 kts | 289° |
| 2026-05-05 04:15 | 25.58579 | -78.91817 | 16336 ft | 301 kts | 289° |
| 2026-05-05 04:15 | 25.59387 | -78.93937 | 16081 ft | 295 kts | 289° |
| 2026-05-05 04:16 | 25.60190 | -78.96051 | 15838 ft | 300 kts | 289° |
| 2026-05-05 04:16 | 25.61002 | -78.98193 | 15641 ft | 302 kts | 290° |
| 2026-05-05 04:16 | 25.61815 | -79.00334 | 15461 ft | 298 kts | 290° |
| 2026-05-05 04:16 | 25.62605 | -79.02405 | 15349 ft | 286 kts | 290° |
| 2026-05-05 04:17 | 25.63362 | -79.04397 | 15175 ft | 276 kts | 290° |
| 2026-05-05 04:17 | 25.64099 | -79.06357 | 14759 ft | 276 kts | 289° |
| 2026-05-05 04:17 | 25.64828 | -79.08325 | 14345 ft | 275 kts | 290° |
| 2026-05-05 04:17 | 25.65556 | -79.10286 | 13939 ft | 274 kts | 290° |
| 2026-05-05 04:18 | 25.66277 | -79.12216 | 13528 ft | 274 kts | 290° |
| 2026-05-05 04:18 | 25.67009 | -79.14165 | 13109 ft | 274 kts | 290° |
| 2026-05-05 04:18 | 25.67742 | -79.16115 | 12717 ft | 273 kts | 290° |
| 2026-05-05 04:18 | 25.68471 | -79.18053 | 12352 ft | 271 kts | 290° |
| 2026-05-05 04:19 | 25.69192 | -79.19974 | 11998 ft | 270 kts | 290° |
| 2026-05-05 04:19 | 25.69912 | -79.21900 | 11651 ft | 270 kts | 290° |
| 2026-05-05 04:19 | 25.70631 | -79.23827 | 11304 ft | 271 kts | 290° |
| 2026-05-05 04:19 | 25.71354 | -79.25756 | 10957 ft | 272 kts | 290° |
| 2026-05-05 04:20 | 25.72082 | -79.27697 | 10608 ft | 272 kts | 290° |
| 2026-05-05 04:20 | 25.72806 | -79.29632 | 10269 ft | 272 kts | 290° |
| 2026-05-05 04:20 | 25.73531 | -79.31575 | 9992 ft | 270 kts | 289° |
| 2026-05-05 04:20 | 25.74234 | -79.33493 | 9757 ft | 266 kts | 289° |
| 2026-05-05 04:21 | 25.74924 | -79.35387 | 9522 ft | 263 kts | 289° |
| 2026-05-05 04:21 | 25.75606 | -79.37254 | 9300 ft | 259 kts | 289° |
| 2026-05-05 04:21 | 25.76283 | -79.39094 | 9075 ft | 256 kts | 289° |
| 2026-05-05 04:21 | 25.76954 | -79.40915 | 8850 ft | 253 kts | 289° |
| 2026-05-05 04:22 | 25.77607 | -79.42696 | 8632 ft | 251 kts | 289° |
| 2026-05-05 04:22 | 25.78262 | -79.44481 | 8414 ft | 248 kts | 289° |
| 2026-05-05 04:22 | 25.78907 | -79.46245 | 8197 ft | 246 kts | 289° |
| 2026-05-05 04:22 | 25.79548 | -79.47997 | 7992 ft | 243 kts | 289° |
| 2026-05-05 04:23 | 25.80184 | -79.49729 | 7784 ft | 241 kts | 288° |
| 2026-05-05 04:23 | 25.80814 | -79.51454 | 7574 ft | 241 kts | 288° |
| 2026-05-05 04:23 | 25.81442 | -79.53177 | 7370 ft | 241 kts | 288° |
| 2026-05-05 04:23 | 25.82071 | -79.54896 | 7161 ft | 240 kts | 288° |
| 2026-05-05 04:24 | 25.82700 | -79.56616 | 6958 ft | 240 kts | 288° |
| 2026-05-05 04:24 | 25.83326 | -79.58329 | 6755 ft | 239 kts | 288° |
| 2026-05-05 04:24 | 25.83950 | -79.60041 | 6553 ft | 239 kts | 288° |
| 2026-05-05 04:25 | 25.85225 | -79.63422 | 6153 ft | 238 kts | 289° |
| 2026-05-05 04:25 | 25.85900 | -79.65126 | 6013 ft | 245 kts | 291° |
| 2026-05-05 04:25 | 25.86641 | -79.66872 | 6020 ft | 255 kts | 291° |
| 2026-05-05 04:25 | 25.87422 | -79.68670 | 6024 ft | 260 kts | 292° |
| 2026-05-05 04:26 | 25.88207 | -79.70471 | 6025 ft | 259 kts | 292° |
| 2026-05-05 04:26 | 25.88986 | -79.72280 | 6026 ft | 259 kts | 292° |
| 2026-05-05 04:26 | 25.89760 | -79.74087 | 6019 ft | 259 kts | 292° |
| 2026-05-05 04:26 | 25.90532 | -79.75899 | 6015 ft | 259 kts | 292° |
| 2026-05-05 04:27 | 25.91288 | -79.77683 | 6013 ft | 259 kts | 292° |
| 2026-05-05 04:27 | 25.92059 | -79.79494 | 6012 ft | 259 kts | 292° |
| 2026-05-05 04:27 | 25.92834 | -79.81307 | 6012 ft | 259 kts | 292° |
| 2026-05-05 04:27 | 25.93606 | -79.83119 | 6013 ft | 259 kts | 292° |
| 2026-05-05 04:28 | 25.94377 | -79.84930 | 6007 ft | 259 kts | 292° |
| 2026-05-05 04:28 | 25.95151 | -79.86748 | 6011 ft | 259 kts | 292° |
| 2026-05-05 04:28 | 25.95923 | -79.88562 | 6012 ft | 259 kts | 292° |
| 2026-05-05 04:28 | 25.96693 | -79.90375 | 6011 ft | 259 kts | 292° |
| 2026-05-05 04:29 | 25.97463 | -79.92191 | 6009 ft | 259 kts | 292° |
| 2026-05-05 04:29 | 25.98234 | -79.94005 | 6011 ft | 259 kts | 292° |
| 2026-05-05 04:29 | 25.99132 | -79.95752 | 6007 ft | 263 kts | 302° |
| 2026-05-05 04:29 | 26.00315 | -79.97308 | 6016 ft | 265 kts | 308° |
| 2026-05-05 04:30 | 26.01590 | -79.98795 | 6020 ft | 265 kts | 309° |
| 2026-05-05 04:30 | 26.02860 | -80.00279 | 6019 ft | 265 kts | 309° |
| 2026-05-05 04:30 | 26.04100 | -80.01795 | 6015 ft | 264 kts | 307° |
| 2026-05-05 04:30 | 26.05321 | -80.03329 | 6011 ft | 264 kts | 307° |
| 2026-05-05 04:31 | 26.06525 | -80.04839 | 6006 ft | 264 kts | 307° |
| 2026-05-05 04:31 | 26.07756 | -80.06361 | 6007 ft | 265 kts | 308° |
| 2026-05-05 04:31 | 26.08996 | -80.07881 | 6009 ft | 265 kts | 308° |
| 2026-05-05 04:31 | 26.10230 | -80.09401 | 6013 ft | 264 kts | 308° |
| 2026-05-05 04:32 | 26.11458 | -80.10926 | 6009 ft | 264 kts | 308° |
| 2026-05-05 04:32 | 26.12686 | -80.12450 | 6009 ft | 265 kts | 308° |
| 2026-05-05 04:32 | 26.13912 | -80.13974 | 6011 ft | 264 kts | 306° |
| 2026-05-05 04:32 | 26.14884 | -80.15671 | 6002 ft | 259 kts | 288° |
| 2026-05-05 04:33 | 26.15180 | -80.17614 | 5834 ft | 254 kts | 269° |
| 2026-05-05 04:33 | 26.15129 | -80.19579 | 5423 ft | 255 kts | 265° |
| 2026-05-05 04:33 | 26.15057 | -80.21550 | 5141 ft | 252 kts | 267° |
| 2026-05-05 04:33 | 26.15068 | -80.23459 | 5041 ft | 241 kts | 269° |
| 2026-05-05 04:34 | 26.15112 | -80.25283 | 4988 ft | 229 kts | 269° |
| 2026-05-05 04:34 | 26.15134 | -80.27012 | 4904 ft | 218 kts | 268° |
| 2026-05-05 04:34 | 26.15125 | -80.28639 | 4823 ft | 207 kts | 266° |
| 2026-05-05 04:34 | 26.15117 | -80.30208 | 4659 ft | 200 kts | 266° |
| 2026-05-05 04:35 | 26.15120 | -80.31762 | 4324 ft | 203 kts | 266° |
| 2026-05-05 04:35 | 26.15137 | -80.33366 | 3875 ft | 211 kts | 267° |
| 2026-05-05 04:35 | 26.15148 | -80.35020 | 3504 ft | 216 kts | 268° |
| 2026-05-05 04:35 | 26.15130 | -80.36691 | 3190 ft | 216 kts | 263° |
| 2026-05-05 04:36 | 26.14634 | -80.38238 | 2995 ft | 212 kts | 232° |
| 2026-05-05 04:36 | 26.13501 | -80.39263 | 3000 ft | 212 kts | 201° |
| 2026-05-05 04:36 | 26.12074 | -80.39515 | 3006 ft | 209 kts | 172° |
| 2026-05-05 04:36 | 26.10726 | -80.38958 | 3020 ft | 208 kts | 148° |
| 2026-05-05 04:37 | 26.09528 | -80.38066 | 3022 ft | 207 kts | 144° |
| 2026-05-05 04:37 | 26.08425 | -80.37073 | 3006 ft | 206 kts | 129° |
| 2026-05-05 04:37 | 26.07832 | -80.35644 | 3006 ft | 206 kts | 98° |
| 2026-05-05 04:37 | 26.07774 | -80.34073 | 3017 ft | 198 kts | 90° |
| 2026-05-05 04:38 | 26.07788 | -80.32594 | 2885 ft | 188 kts | 89° |
| 2026-05-05 04:38 | 26.07790 | -80.31149 | 2636 ft | 186 kts | 90° |
| 2026-05-05 04:38 | 26.07772 | -80.29723 | 2392 ft | 183 kts | 90° |
| 2026-05-05 04:38 | 26.07765 | -80.28346 | 2155 ft | 172 kts | 89° |
| 2026-05-05 04:39 | 26.07755 | -80.27062 | 1940 ft | 161 kts | 88° |
| 2026-05-05 04:39 | 26.07748 | -80.25882 | 1758 ft | 142 kts | 88° |
| 2026-05-05 04:39 | 26.07743 | -80.24829 | 1561 ft | 131 kts | 88° |
| 2026-05-05 04:39 | 26.07737 | -80.23826 | 1389 ft | 129 kts | 88° |
| 2026-05-05 04:40 | 26.07734 | -80.22826 | 1215 ft | 129 kts | 88° |
| 2026-05-05 04:40 | 26.07727 | -80.21829 | 1040 ft | 129 kts | 88° |
| 2026-05-05 04:40 | 26.07722 | -80.20834 | 868 ft | 129 kts | 88° |
| 2026-05-05 04:40 | 26.07716 | -80.19841 | 695 ft | 128 kts | 88° |
| 2026-05-05 04:41 | 26.07709 | -80.18839 | 524 ft | 130 kts | 88° |
| 2026-05-05 04:41 | 26.07703 | -80.17842 | 353 ft | 132 kts | 88° |
| 2026-05-05 04:41 | 26.07697 | -80.16818 | 176 ft | 132 kts | 89° |
| 2026-05-05 04:41 | 26.07693 | -80.15811 | 80 ft | 122 kts | 93° |
| 2026-05-05 04:42 | 26.07685 | -80.15048 | 79 ft | 74 kts | 90° |
| 2026-05-05 04:42 | 26.07685 | -80.14651 | 79 ft | 35 kts | 90° |
| 2026-05-05 04:42 | 26.07677 | -80.14499 | 79 ft | 16 kts | 109° |
| 2026-05-05 04:42 | 26.07641 | -80.14429 | 79 ft | 9 kts | 121° |
| 2026-05-05 04:43 | 26.07603 | -80.14360 | 79 ft | 12 kts | 121° |
| 2026-05-05 04:43 | 26.07575 | -80.14315 | 79 ft | 3 kts | 174° |
| 2026-05-05 04:43 | 26.07561 | -80.14347 | 79 ft | 6 kts | 262° |
| 2026-05-05 04:43 | 26.07558 | -80.14405 | 79 ft | 9 kts | 268° |
| 2026-05-05 04:44 | 26.07559 | -80.14483 | 79 ft | 12 kts | 272° |
| 2026-05-05 04:44 | 26.07561 | -80.14584 | 79 ft | 14 kts | 271° |
| 2026-05-05 04:44 | 26.07562 | -80.14704 | 79 ft | 17 kts | 270° |
| 2026-05-05 04:44 | 26.07562 | -80.14843 | 79 ft | 19 kts | 271° |
| 2026-05-05 04:45 | 26.07564 | -80.14949 | 79 ft | 21 kts | 271° |
| 2026-05-05 04:45 | 26.07564 | -80.15065 | 79 ft | 12 kts | 270° |
| 2026-05-05 04:45 | 26.07543 | -80.15124 | 79 ft | 8 kts | 194° |
| 2026-05-05 04:45 | 26.07479 | -80.15126 | 79 ft | 10 kts | 183° |
| 2026-05-05 04:46 | 26.07431 | -80.15126 | 79 ft | 10 kts | 174° |
| 2026-05-05 04:46 | 26.07357 | -80.15124 | 79 ft | 11 kts | 181° |
| 2026-05-05 04:46 | 26.07279 | -80.15127 | 79 ft | 11 kts | 180° |
| 2026-05-05 04:46 | 26.07201 | -80.15115 | 79 ft | 11 kts | 151° |
| 2026-05-05 04:47 | 26.07142 | -80.15054 | 79 ft | 12 kts | 134° |
| 2026-05-05 04:47 | 26.07082 | -80.14990 | 79 ft | 12 kts | 137° |
| 2026-05-05 04:47 | 26.07019 | -80.14922 | 79 ft | 13 kts | 136° |
| 2026-05-05 04:47 | 26.06955 | -80.14853 | 79 ft | 8 kts | 136° |
| 2026-05-05 04:48 | 26.06917 | -80.14808 | 79 ft | 6 kts | 105° |
| 2026-05-05 04:48 | 26.06937 | -80.14777 | 79 ft | 5 kts | 39° |
| 2026-05-05 04:48 | 26.06965 | -80.14752 | 79 ft | 5 kts | 39° |
| 2026-05-05 04:48 | 26.06994 | -80.14723 | 79 ft | 5 kts | 58° |
| 2026-05-05 04:49 | 26.07004 | -80.14681 | 79 ft | 5 kts | 69° |
| 2026-05-05 04:49 | 26.07033 | -80.14666 | 79 ft | 5 kts | 358° |
| 2026-05-05 04:49 | 26.07068 | -80.14666 | 79 ft | 4 kts | 1° |
| 2026-05-05 04:49 | 26.07093 | -80.14666 | 79 ft | 0 kts | 1° |